Time;durP1;ratioP1;P1;durP2;ratioP2;P2;SDS_P1;SDS_P2;PMS_P1;PMS_P2;Temp;Humidity;BMP_temperature;BMP_pressure;BME280_temperature;BME280_humidity;BME280_pressure;Samples;Min_cycle;Max_cycle;Signal;HPM_P1;HPM_P2
2022/05/27 00:00:10;;;;;;;5.75;1.42;;;;;;;21.64;50.90;102085.84;5083950;28;20044;-49
2022/05/27 00:02:36;;;;;;;3.47;1.02;;;;;;;21.62;50.82;102090.53;5078154;28;20444;-48
2022/05/27 00:05:03;;;;;;;5.72;1.60;;;;;;;21.61;50.94;102085.28;5082905;28;20054;-49
2022/05/27 00:07:30;;;;;;;4.20;1.48;;;;;;;21.60;50.89;102084.44;5079008;28;20037;-49
2022/05/27 00:09:57;;;;;;;3.35;1.10;;;;;;;21.59;51.07;102071.97;5083623;28;20261;-48
2022/05/27 00:12:23;;;;;;;5.15;1.65;;;;;;;21.57;51.07;102065.00;5085032;28;20127;-51
2022/05/27 00:14:50;;;;;;;5.10;1.30;;;;;;;21.56;50.80;102066.84;5085699;28;20066;-51
2022/05/27 00:17:17;;;;;;;6.03;1.80;;;;;;;21.56;50.84;102063.31;5079989;28;20044;-50
2022/05/27 00:19:44;;;;;;;4.13;1.27;;;;;;;;;;5080685;28;20051;-51
2022/05/27 00:22:10;;;;;;;5.28;1.38;;;;;;;21.53;51.02;102064.44;5079898;28;20044;-50
2022/05/27 00:24:37;;;;;;;3.67;1.38;;;;;;;21.52;51.03;102072.69;5080108;28;20062;-50
2022/05/27 00:27:06;;;;;;;4.35;1.20;;;;;;;21.50;50.85;102075.53;5082291;28;20087;-51
2022/05/27 00:29:32;;;;;;;5.18;1.50;;;;;;;21.51;50.89;102076.38;5082351;28;20044;-48
2022/05/27 00:32:19;;;;;;;4.32;1.15;;;;;;;21.50;51.33;102071.97;5077715;28;20055;-47
2022/05/27 00:34:46;;;;;;;4.35;1.13;;;;;;;21.50;50.98;102069.28;5078253;28;20051;-50
2022/05/27 00:37:14;;;;;;;4.85;1.27;;;;;;;21.48;51.14;102074.84;5081961;28;20082;-48
2022/05/27 00:39:40;;;;;;;3.38;1.45;;;;;;;21.47;51.33;102072.25;5079934;28;20653;-50
2022/05/27 00:42:08;;;;;;;4.43;1.33;;;;;;;21.47;50.96;102073.13;5085395;28;20055;-48
2022/05/27 00:44:35;;;;;;;3.05;1.05;;;;;;;21.45;51.26;102067.03;5085211;28;20434;-52
2022/05/27 00:47:06;;;;;;;4.30;1.33;;;;;;;21.44;51.09;102068.03;5083239;28;20032;-51
2022/05/27 00:49:43;;;;;;;4.03;1.25;;;;;;;21.43;51.17;102058.25;5081980;28;20163;-48
2022/05/27 00:52:13;;;;;;;3.67;1.17;;;;;;;21.44;51.59;102062.63;5080205;28;20074;-49
2022/05/27 00:54:41;;;;;;;3.25;1.10;;;;;;;21.43;51.43;102063.63;5079265;28;20056;-47
2022/05/27 00:57:12;;;;;;;4.45;1.38;;;;;;;21.41;51.20;102068.31;5081559;28;20327;-50
2022/05/27 00:59:43;;;;;;;4.07;1.40;;;;;;;21.41;51.06;102054.81;5078500;28;20050;-49
2022/05/27 01:02:10;;;;;;;4.25;1.10;;;;;;;21.40;51.20;102056.69;5081756;28;20143;-46
2022/05/27 01:04:38;;;;;;;3.70;1.15;;;;;;;21.41;51.08;102057.53;5084310;28;20135;-46
2022/05/27 01:07:05;;;;;;;2.05;1.35;;;;;;;21.40;50.95;102048.59;5088228;28;20372;-52
2022/05/27 01:09:35;;;;;;;4.35;1.50;;;;;;;21.39;51.16;102056.84;5089526;28;20122;-50
2022/05/27 01:12:15;;;;;;;3.60;1.13;;;;;;;21.37;51.47;102056.97;5084121;28;20036;-50
2022/05/27 01:14:42;;;;;;;3.35;0.90;;;;;;;21.39;51.43;102054.97;5080958;28;20048;-50
2022/05/27 01:17:30;;;;;;;4.10;1.05;;;;;;;21.37;51.44;102059.66;5079942;28;20123;-51
2022/05/27 01:20:18;;;;;;;4.82;1.35;;;;;;;21.36;51.12;102055.28;5080025;28;20084;-51
2022/05/27 01:23:22;;;;;;;1.58;0.90;;;;;;;21.36;50.97;102057.13;5085071;28;20047;-49
2022/05/27 01:26:13;;;;;;;4.05;1.40;;;;;;;21.35;51.44;102058.13;5087632;28;20040;-48
2022/05/27 01:29:09;;;;;;;3.75;1.30;;;;;;;21.33;51.23;102052.84;5086540;28;20043;-51
2022/05/27 01:31:46;;;;;;;2.05;0.93;;;;;;;21.34;51.28;102056.41;5081170;28;20048;-47
2022/05/27 01:34:15;;;;;;;2.13;0.80;;;;;;;21.33;51.08;102063.66;5082691;28;20051;-50
2022/05/27 01:36:54;;;;;;;3.65;0.98;;;;;;;21.31;51.21;102054.00;5078984;28;20127;-48
2022/05/27 01:39:47;;;;;;;3.60;1.00;;;;;;;21.30;51.69;102050.41;5079927;28;20036;-47
2022/05/27 01:42:20;;;;;;;4.35;1.35;;;;;;;21.31;51.68;102060.22;5078508;28;20043;-49
2022/05/27 01:45:18;;;;;;;3.67;1.25;;;;;;;21.28;51.71;102056.97;5079695;28;20052;-49
2022/05/27 01:48:07;;;;;;;4.63;0.95;;;;;;;21.27;51.27;102056.13;5079007;28;20054;-50
2022/05/27 01:50:51;;;;;;;2.55;1.10;;;;;;;21.27;51.37;102061.50;5084730;28;20052;-48
2022/05/27 01:53:38;;;;;;;3.47;1.10;;;;;;;21.24;51.80;102053.72;5075648;28;20058;-48
2022/05/27 01:56:20;;;;;;;2.55;1.02;;;;;;;21.24;51.28;102052.88;5072831;28;20050;-50
2022/05/27 01:58:52;;;;;;;2.75;1.00;;;;;;;21.23;51.83;102056.53;5076946;28;20040;-50
2022/05/27 02:01:25;;;;;;;3.60;1.20;;;;;;;21.21;51.49;102059.38;5078038;28;20074;-46
2022/05/27 02:04:01;;;;;;;1.98;0.90;;;;;;;21.20;51.30;102065.78;5078686;28;20036;-47
2022/05/27 02:06:35;;;;;;;3.72;1.67;;;;;;;21.19;51.61;102064.94;5082290;28;20083;-46
2022/05/27 02:09:20;;;;;;;2.65;0.90;;;;;;;21.18;51.95;102051.56;5079146;28;20127;-49
2022/05/27 02:11:52;;;;;;;2.30;0.90;;;;;;;21.16;51.98;102049.03;5079471;28;20052;-48
2022/05/27 02:14:43;;;;;;;3.23;0.90;;;;;;;21.15;51.78;102046.50;5076870;28;20044;-48
2022/05/27 02:17:18;;;;;;;2.20;0.95;;;;;;;21.14;51.67;102044.78;5077920;28;20442;-48
2022/05/27 02:19:51;;;;;;;2.35;0.85;;;;;;;21.13;51.98;102033.16;5078407;28;20462;-52
2022/05/27 02:22:30;;;;;;;2.42;1.13;;;;;;;21.13;51.67;102037.69;5080752;28;20044;-50
2022/05/27 02:25:09;;;;;;;1.73;0.70;;;;;;;21.12;52.03;102039.53;5079756;28;20410;-51
2022/05/27 02:27:44;;;;;;;3.97;1.25;;;;;;;21.11;51.97;102045.09;5076425;28;20048;-48
2022/05/27 02:30:13;;;;;;;2.15;1.20;;;;;;;21.12;51.82;102044.09;5077835;28;20047;-49
2022/05/27 02:32:45;;;;;;;3.33;1.10;;;;;;;21.11;51.33;102050.47;5079675;28;20048;-50
2022/05/27 02:35:21;;;;;;;4.13;1.00;;;;;;;21.10;52.12;102046.06;5078111;28;20052;-45
2022/05/27 02:37:50;;;;;;;2.58;0.90;;;;;;;21.11;52.06;102042.38;5082773;28;20051;-49
2022/05/27 02:40:21;;;;;;;3.25;1.05;;;;;;;21.09;51.65;102037.13;5079937;28;20074;-47
2022/05/27 02:43:08;;;;;;;3.17;0.90;;;;;;;21.08;51.38;102042.69;5083295;28;20040;-47
2022/05/27 02:45:49;;;;;;;9.30;1.00;;;;;;;21.08;52.00;102042.69;5084428;28;20071;-49
2022/05/27 02:48:42;;;;;;;3.42;0.98;;;;;;;21.08;51.88;102046.22;5082726;28;20040;-46
2022/05/27 02:51:24;;;;;;;2.20;0.93;;;;;;;21.07;51.83;102047.22;5084046;28;20044;-48
2022/05/27 02:54:09;;;;;;;5.55;1.33;;;;;;;21.07;51.81;102049.06;5079144;28;20052;-47
2022/05/27 02:57:03;;;;;;;2.03;0.77;;;;;;;21.07;51.83;102051.75;5080749;28;20094;-51
2022/05/27 02:59:31;;;;;;;2.25;0.70;;;;;;;21.05;51.68;102043.81;5080321;28;20054;-46
2022/05/27 03:02:11;;;;;;;3.72;1.00;;;;;;;21.04;51.46;102052.03;5083961;28;20044;-45
2022/05/27 03:04:41;;;;;;;2.20;0.98;;;;;;;21.03;51.38;102056.59;5084307;28;20047;-47
2022/05/27 03:07:20;;;;;;;4.75;1.52;;;;;;;21.03;52.12;102050.34;5089300;28;20047;-49
2022/05/27 03:10:22;;;;;;;3.97;0.80;;;;;;;21.00;52.12;102046.09;5083489;28;20139;-46
2022/05/27 03:13:33;;;;;;;1.95;1.02;;;;;;;21.02;52.09;102049.47;5083493;28;20356;-47
2022/05/27 03:16:14;;;;;;;2.47;0.90;;;;;;;21.01;51.61;102053.16;5051477;28;20040;-48
2022/05/27 03:19:02;;;;;;;2.25;0.80;;;;;;;21.00;52.31;102048.78;5076937;28;20063;-50
2022/05/27 03:21:50;;;;;;;2.72;1.00;;;;;;;20.99;52.18;102048.94;5078886;28;20135;-48
2022/05/27 03:25:00;;;;;;;3.95;1.10;;;;;;;21.00;52.12;102053.31;5078032;28;20062;-48
2022/05/27 03:27:42;;;;;;;2.15;0.90;;;;;;;21.00;51.83;102047.94;5071106;28;20334;-47
2022/05/27 03:30:16;;;;;;;2.63;1.00;;;;;;;21.00;51.80;102056.03;5082629;28;20051;-46
2022/05/27 03:32:56;;;;;;;1.52;0.80;;;;;;;20.99;51.64;102052.47;5082469;28;20048;-50
2022/05/27 03:35:49;;;;;;;5.18;0.95;;;;;;;20.99;52.01;102049.78;5082803;28;20063;-51
2022/05/27 03:39:00;;;;;;;1.98;0.93;;;;;;;20.99;52.17;102052.47;5074637;28;20538;-48
2022/05/27 03:41:35;;;;;;;3.85;0.90;;;;;;;21.00;52.16;102059.56;5070203;28;20051;-47
2022/05/27 03:44:02;;;;;;;5.07;1.30;;;;;;;20.98;51.71;102050.75;5078750;28;20408;-46
2022/05/27 03:46:38;;;;;;;1.55;0.82;;;;;;;21.00;51.57;102056.03;5082539;28;20055;-48
2022/05/27 03:49:06;;;;;;;2.35;0.98;;;;;;;20.99;52.02;102054.34;5084010;28;20097;-45
2022/05/27 03:51:42;;;;;;;2.72;0.85;;;;;;;20.98;51.62;102061.53;5081006;28;20091;-49
2022/05/27 03:54:11;;;;;;;2.85;0.88;;;;;;;20.98;52.05;102061.53;5081171;28;20654;-47
2022/05/27 03:56:42;;;;;;;2.80;0.90;;;;;;;21.00;51.64;102056.03;5081876;28;20044;-46
2022/05/27 03:59:11;;;;;;;3.58;1.10;;;;;;;21.00;52.23;102061.41;5082904;28;20044;-48
2022/05/27 04:01:41;;;;;;;4.00;1.00;;;;;;;20.99;51.66;102065.97;5081059;28;20055;-48
2022/05/27 04:04:10;;;;;;;3.00;1.00;;;;;;;20.99;51.57;102052.47;5083409;28;20123;-47
2022/05/27 04:06:37;;;;;;;2.75;1.10;;;;;;;21.00;52.03;102066.81;5083849;28;20094;-50
2022/05/27 04:09:04;;;;;;;2.50;0.80;;;;;;;20.99;51.84;102060.56;5081187;28;20320;-46
2022/05/27 04:11:31;;;;;;;2.13;0.75;;;;;;;20.99;51.72;102054.34;5080728;28;20066;-46
2022/05/27 04:13:58;;;;;;;2.13;0.88;;;;;;;20.99;51.64;102057.88;5078398;28;20083;-46
2022/05/27 04:16:25;;;;;;;2.25;1.08;;;;;;;20.99;51.60;102063.25;5077947;28;20168;-50
2022/05/27 04:18:52;;;;;;;1.90;0.75;;;;;;;21.00;51.77;102061.41;5082083;28;20049;-48
2022/05/27 04:21:18;;;;;;;2.65;0.80;;;;;;;21.00;52.01;102064.09;5086273;28;20046;-46
2022/05/27 04:23:45;;;;;;;2.67;1.00;;;;;;;20.99;52.02;102060.56;5085643;28;20066;-45
2022/05/27 04:26:12;;;;;;;3.10;1.08;;;;;;;21.01;51.54;102068.50;5087983;28;20040;-48
2022/05/27 04:28:38;;;;;;;2.63;1.30;;;;;;;21.00;51.67;102061.41;5088331;28;20048;-47
2022/05/27 04:31:05;;;;;;;2.63;0.70;;;;;;;21.00;52.14;102059.56;5083137;28;20127;-47
2022/05/27 04:33:31;;;;;;;2.05;0.82;;;;;;;21.01;51.47;102061.25;5080890;28;20040;-47
2022/05/27 04:35:59;;;;;;;3.42;1.13;;;;;;;21.01;51.38;102055.03;5081762;28;20085;-46
2022/05/27 04:38:27;;;;;;;4.15;1.10;;;;;;;21.02;51.94;102059.41;5080697;28;20036;-51
2022/05/27 04:40:54;;;;;;;1.73;0.80;;;;;;;21.01;51.80;102063.09;5081330;28;20040;-49
2022/05/27 04:43:20;;;;;;;1.63;0.90;;;;;;;21.01;51.42;102065.81;5085882;28;20385;-48
2022/05/27 04:45:47;;;;;;;3.97;0.80;;;;;;;21.01;51.67;102072.03;5088453;28;20426;-47
2022/05/27 04:48:16;;;;;;;3.35;1.15;;;;;;;21.02;51.96;102070.19;5088296;28;20040;-47
2022/05/27 04:50:43;;;;;;;4.28;0.88;;;;;;;21.02;51.91;102065.66;5090207;28;20050;-47
2022/05/27 04:53:11;;;;;;;2.78;1.08;;;;;;;21.03;51.87;102070.06;5080521;28;20533;-48
2022/05/27 04:55:39;;;;;;;2.88;1.05;;;;;;;21.02;51.61;102071.03;5081557;28;20438;-51
2022/05/27 04:58:06;;;;;;;1.90;0.82;;;;;;;21.02;51.57;102070.19;5081749;28;20164;-47
2022/05/27 05:00:39;;;;;;;3.58;0.95;;;;;;;21.04;51.91;102073.63;5081241;28;20056;-52
2022/05/27 05:03:06;;;;;;;2.83;1.00;;;;;;;21.04;51.50;102079.84;5080356;28;20048;-50
2022/05/27 05:05:34;;;;;;;3.10;0.75;;;;;;;21.03;51.39;102083.53;5087123;28;20044;-50
2022/05/27 05:08:05;;;;;;;3.60;0.93;;;;;;;21.03;51.75;102082.69;5086003;28;20036;-49
2022/05/27 05:10:32;;;;;;;2.67;0.82;;;;;;;21.03;51.36;102083.53;5082805;28;20052;-51
2022/05/27 05:12:59;;;;;;;1.48;0.70;;;;;;;21.04;51.72;102084.41;5079958;28;20085;-49
2022/05/27 05:15:27;;;;;;;1.75;0.82;;;;;;;21.05;51.87;102086.09;5083398;28;20047;-50
2022/05/27 05:17:54;;;;;;;4.57;0.95;;;;;;;21.04;51.81;102089.78;5079416;28;20046;-51
2022/05/27 05:20:25;;;;;;;4.10;0.88;;;;;;;21.04;51.68;102100.56;5078498;28;20056;-48
2022/05/27 05:22:52;;;;;;;0.98;0.77;;;;;;;21.04;51.26;102101.41;5077094;28;20048;-51
2022/05/27 05:25:19;;;;;;;2.60;0.80;;;;;;;21.04;51.90;102098.72;5077938;28;20052;-52
2022/05/27 05:27:46;;;;;;;2.88;1.17;;;;;;;21.05;51.43;102107.66;5081901;28;20110;-47
2022/05/27 05:30:15;;;;;;;1.70;0.80;;;;;;;21.05;51.17;102102.25;5081975;28;20075;-49
2022/05/27 05:32:42;;;;;;;2.88;0.93;;;;;;;21.05;51.39;102113.03;5079954;28;20049;-51
2022/05/27 05:35:10;;;;;;;1.98;0.77;;;;;;;21.05;51.61;102119.28;5079957;28;20052;-52
2022/05/27 05:37:36;;;;;;;1.73;0.90;;;;;;;21.06;51.17;102120.13;5082832;28;20040;-52
2022/05/27 05:40:07;;;;;;;3.03;1.10;;;;;;;21.05;51.12;102116.59;5081457;28;20080;-47
2022/05/27 05:42:34;;;;;;;4.13;0.90;;;;;;;21.06;51.47;102126.38;5082395;28;20127;-50
2022/05/27 05:45:01;;;;;;;1.55;0.68;;;;;;;21.07;51.33;102130.78;5082496;28;20441;-49
2022/05/27 05:47:27;;;;;;;2.45;1.10;;;;;;;21.07;51.13;102125.41;5080254;28;20048;-48
2022/05/27 05:49:54;;;;;;;2.83;0.90;;;;;;;21.07;51.32;102122.69;5080056;28;20567;-52
2022/05/27 05:52:20;;;;;;;4.15;0.90;;;;;;;21.08;51.21;102128.94;5078037;28;20040;-50
2022/05/27 05:54:47;;;;;;;2.42;0.90;;;;;;;21.09;51.25;102131.47;5076871;28;20058;-49
2022/05/27 05:57:13;;;;;;;3.08;1.13;;;;;;;21.10;51.38;102126.94;5077352;28;20058;-48
2022/05/27 05:59:40;;;;;;;1.67;0.60;;;;;;;21.10;51.39;102135.03;5080895;28;20048;-50
2022/05/27 06:02:08;;;;;;;3.88;1.10;;;;;;;21.11;51.25;102134.91;5084583;28;20044;-50
2022/05/27 06:04:34;;;;;;;2.17;1.02;;;;;;;21.12;50.94;102131.22;5084381;28;20052;-52
2022/05/27 06:07:04;;;;;;;3.55;0.90;;;;;;;21.11;51.02;102134.91;5085137;28;20144;-50
2022/05/27 06:09:31;;;;;;;3.28;0.93;;;;;;;21.13;50.92;102141.00;5079714;28;20082;-51
2022/05/27 06:12:02;;;;;;;3.47;1.02;;;;;;;21.13;51.09;102137.44;5080647;28;20051;-47
2022/05/27 06:14:28;;;;;;;2.05;1.00;;;;;;;21.14;51.33;102145.38;5080205;28;20037;-51
2022/05/27 06:16:55;;;;;;;2.35;0.80;;;;;;;21.15;50.77;102140.88;5078228;28;20047;-49
2022/05/27 06:19:22;;;;;;;3.75;1.00;;;;;;;21.15;50.88;102136.31;5079081;28;20489;-48
2022/05/27 06:21:49;;;;;;;1.80;0.85;;;;;;;21.17;51.01;102149.66;5081244;28;20053;-49
2022/05/27 06:24:16;;;;;;;2.35;0.90;;;;;;;21.15;51.01;102141.72;5085430;28;20388;-49
2022/05/27 06:26:43;;;;;;;2.75;0.90;;;;;;;21.16;50.99;102156.03;5087280;28;20361;-47
2022/05/27 06:34:40;;;;;;;3.85;0.85;;;;;;;21.18;50.57;102164.81;5078219;28;20135;-47
2022/05/27 06:37:13;;;;;;;3.60;0.93;;;;;;;21.18;51.21;102164.81;5080233;28;20120;-47
2022/05/27 06:39:40;;;;;;;3.50;1.00;;;;;;;21.19;51.04;102163.84;5076981;28;20090;-47
2022/05/27 06:42:09;;;;;;;3.22;0.90;;;;;;;21.18;50.64;102162.97;5081437;28;20073;-46
2022/05/27 06:44:56;;;;;;;2.13;0.80;;;;;;;21.20;50.79;102169.09;5080583;28;20048;-48
2022/05/27 06:47:24;;;;;;;3.78;1.15;;;;;;;21.20;50.67;102169.09;5082168;28;20056;-49
2022/05/27 06:49:50;;;;;;;2.03;0.98;;;;;;;21.24;50.78;102174.22;5087459;28;20048;-48
2022/05/27 06:52:17;;;;;;;3.28;1.17;;;;;;;21.23;50.73;102170.66;5082992;28;20078;-48
2022/05/27 06:54:44;;;;;;;3.65;1.10;;;;;;;21.23;50.29;102173.34;5075721;28;20074;-46
2022/05/27 06:57:11;;;;;;;3.90;1.33;;;;;;;21.26;50.50;102183.00;5080264;28;20131;-47
2022/05/27 06:59:38;;;;;;;2.55;0.90;;;;;;;21.27;50.51;102179.31;5075984;28;20055;-48
2022/05/27 07:02:05;;;;;;;4.05;1.30;;;;;;;21.28;50.82;102178.31;5075938;28;20044;-49
2022/05/27 07:04:32;;;;;;;3.50;1.15;;;;;;;21.28;50.49;102175.63;5078602;28;20063;-48
2022/05/27 07:06:59;;;;;;;2.22;0.95;;;;;;;21.30;50.49;102187.09;5079158;28;20579;-48
2022/05/27 07:09:25;;;;;;;3.15;1.30;;;;;;;21.29;50.21;102183.56;5079557;28;20346;-53
2022/05/27 07:11:55;;;;;;;4.07;1.00;;;;;;;21.31;50.68;102188.84;5080608;28;20372;-50
2022/05/27 07:14:22;;;;;;;2.40;0.90;;;;;;;21.31;50.40;102186.97;5079304;28;20482;-48
2022/05/27 07:16:48;;;;;;;3.97;1.13;;;;;;;21.31;50.07;102178.88;5078371;28;20044;-46
2022/05/27 07:19:34;;;;;;;4.85;1.40;;;;;;;21.34;50.29;102191.25;5080187;28;20102;-48
2022/05/27 07:22:02;;;;;;;2.17;0.90;;;;;;;21.33;50.57;102186.84;5079668;28;20051;-49
2022/05/27 07:24:28;;;;;;;2.42;1.08;;;;;;;21.33;50.41;102192.25;5082124;28;20058;-50
2022/05/27 07:26:55;;;;;;;4.32;0.98;;;;;;;21.33;50.29;102197.66;5082801;28;20533;-48
2022/05/27 07:29:21;;;;;;;3.90;1.15;;;;;;;21.34;50.45;102196.66;5082270;28;20131;-50
2022/05/27 07:31:48;;;;;;;3.33;1.20;;;;;;;21.35;50.35;102209.16;5079210;28;20049;-50
2022/05/27 07:34:15;;;;;;;4.30;1.65;;;;;;;21.35;50.20;102207.31;5082064;28;20123;-48
2022/05/27 07:36:42;;;;;;;3.45;1.10;;;;;;;21.36;49.86;102209.00;5080124;28;20127;-48
2022/05/27 07:39:08;;;;;;;2.90;1.00;;;;;;;21.37;50.22;102208.00;5085020;28;20039;-49
2022/05/27 07:41:37;;;;;;;3.65;1.20;;;;;;;21.37;50.15;102209.84;5084046;28;20127;-50
2022/05/27 07:44:05;;;;;;;3.42;1.10;;;;;;;21.38;50.08;102216.94;5084867;28;20079;-47
2022/05/27 07:46:34;;;;;;;4.85;1.20;;;;;;;21.39;49.69;102207.88;5086284;28;20126;-51
2022/05/27 07:49:04;;;;;;;4.50;1.45;;;;;;;21.40;49.86;102213.13;5083252;28;20042;-51
2022/05/27 07:51:50;;;;;;;2.63;1.08;;;;;;;21.41;49.71;102211.28;5082781;28;20037;-51
2022/05/27 07:54:18;;;;;;;3.08;1.20;;;;;;;21.40;49.94;102221.22;5082904;28;20123;-53
2022/05/27 07:56:44;;;;;;;4.32;1.33;;;;;;;21.41;49.64;102212.13;5082070;28;20123;-51
2022/05/27 07:59:11;;;;;;;3.33;1.02;;;;;;;21.42;49.91;102223.75;5080640;28;20050;-52
2022/05/27 08:01:37;;;;;;;4.53;1.20;;;;;;;21.42;49.61;102212.97;5084116;28;20056;-51
2022/05/27 08:04:05;;;;;;;4.82;1.73;;;;;;;21.42;49.39;102218.38;5085557;28;20040;-51
2022/05/27 08:06:32;;;;;;;3.85;1.30;;;;;;;21.42;49.66;102221.06;5086320;28;20096;-50
2022/05/27 08:08:59;;;;;;;1.88;0.82;;;;;;;21.41;49.48;102217.50;5086280;28;20039;-48
2022/05/27 08:11:25;;;;;;;5.55;0.95;;;;;;;21.42;49.50;102218.38;5085245;28;20044;-50
2022/05/27 08:13:54;;;;;;;3.60;0.95;;;;;;;21.41;49.61;102213.97;5082260;28;20123;-50
2022/05/27 08:16:20;;;;;;;6.13;1.67;;;;;;;21.41;49.28;102220.22;5080348;28;20080;-48
2022/05/27 08:18:47;;;;;;;3.40;1.40;;;;;;;21.41;49.11;102225.59;5080071;28;20454;-49
2022/05/27 08:21:14;;;;;;;4.63;1.52;;;;;;;21.41;49.28;102212.13;5081990;28;20500;-52
2022/05/27 08:23:40;;;;;;;6.50;1.67;;;;;;;21.42;49.39;102223.75;5085632;28;20052;-49
2022/05/27 08:26:07;;;;;;;4.25;1.52;;;;;;;21.42;49.48;102213.81;5086341;28;20050;-51
2022/05/27 08:28:33;;;;;;;4.90;1.38;;;;;;;21.43;49.55;102222.78;5085068;28;20143;-49
2022/05/27 08:31:00;;;;;;;4.30;1.30;;;;;;;21.44;49.36;102237.97;5086630;28;20044;-49
2022/05/27 08:38:01;;;;;;;6.18;1.90;;;;;;;21.44;49.21;102235.28;5081228;28;20052;-51
2022/05/27 08:39:12;;;;;;;5.13;1.77;;;;;;;21.46;49.37;102238.66;5077752;28;20084;-50
2022/05/27 08:42:06;;;;;;;2.75;1.38;;;;;;;21.46;48.87;102245.91;5081031;28;20513;-49
2022/05/27 08:44:36;;;;;;;5.78;1.33;;;;;;;21.47;49.07;102253.88;5081839;28;20079;-51
2022/05/27 08:47:34;;;;;;;4.03;1.20;;;;;;;21.47;49.00;102259.28;5082565;28;20490;-49
2022/05/27 08:50:26;;;;;;;3.75;1.63;;;;;;;21.47;49.01;102248.47;5081719;28;20041;-50
2022/05/27 08:52:58;;;;;;;6.65;1.58;;;;;;;21.48;48.84;102247.47;5080693;28;20135;-50
2022/05/27 09:01:31;;;;;;;7.20;1.90;;;;;;;21.53;48.79;102264.09;5078747;28;20040;-48
2022/05/27 09:04:09;;;;;;;5.22;1.70;;;;;;;21.53;48.53;102265.94;5077649;28;20301;-49
2022/05/27 09:06:43;;;;;;;4.75;1.25;;;;;;;21.56;48.80;102266.50;5081142;28;20626;-48
2022/05/27 09:09:34;;;;;;;5.70;1.50;;;;;;;21.55;48.36;102275.59;5079826;28;20364;-46
2022/05/27 09:12:36;;;;;;;6.28;1.88;;;;;;;21.57;48.44;102270.91;5076135;28;20048;-51
2022/05/27 09:15:15;;;;;;;5.72;1.67;;;;;;;21.59;48.27;102268.94;5052274;28;20035;-50
2022/05/27 09:17:50;;;;;;;4.90;1.98;;;;;;;21.61;48.43;102272.31;5080534;28;20444;-48
2022/05/27 09:20:34;;;;;;;7.25;2.17;;;;;;;21.61;48.40;102275.00;5083344;28;20067;-47
2022/05/27 09:23:19;;;;;;;4.95;1.58;;;;;;;21.63;48.46;102277.59;5081404;28;20055;-48
2022/05/27 09:26:16;;;;;;;6.05;1.58;;;;;;;21.63;48.24;102274.88;5081437;28;20071;-51
2022/05/27 09:29:03;;;;;;;3.90;1.50;;;;;;;21.64;48.37;102282.84;5080383;28;20037;-47
2022/05/27 09:31:46;;;;;;;6.45;2.28;;;;;;;21.67;48.11;102292.50;5080468;28;20046;-49
2022/05/27 09:34:13;;;;;;;5.43;1.83;;;;;;;21.68;47.75;102288.81;5080270;28;20120;-50
2022/05/27 09:36:47;;;;;;;5.80;1.55;;;;;;;21.69;47.50;102293.19;5078147;28;20052;-50
2022/05/27 09:39:19;;;;;;;8.10;2.03;;;;;;;21.71;47.61;102299.31;5081974;28;20587;-48
2022/05/27 09:42:02;;;;;;;7.20;1.63;;;;;;;21.73;47.52;102291.06;5082049;28;20388;-47
2022/05/27 09:44:53;;;;;;;5.80;1.77;;;;;;;21.76;47.71;102296.19;5087635;28;20131;-48
2022/05/27 09:47:22;;;;;;;4.10;1.45;;;;;;;21.78;47.29;102288.78;5084398;28;20487;-47
2022/05/27 09:49:57;;;;;;;7.60;2.17;;;;;;;21.79;47.15;102285.06;5085356;28;20029;-50
2022/05/27 09:52:28;;;;;;;4.75;1.33;;;;;;;21.82;47.07;102279.41;5083182;28;20041;-50
2022/05/27 09:55:12;;;;;;;5.63;1.75;;;;;;;21.83;46.96;102302.69;5082080;28;20121;-50
2022/05/27 09:57:54;;;;;;;6.35;1.95;;;;;;;21.84;47.36;102301.72;5080719;28;20049;-49
2022/05/27 10:00:53;;;;;;;6.03;1.65;;;;;;;21.85;47.17;102284.53;5084637;28;20101;-51
2022/05/27 10:03:32;;;;;;;5.90;1.50;;;;;;;21.90;46.99;102301.13;5083120;28;20044;-50
2022/05/27 10:06:10;;;;;;;6.13;1.83;;;;;;;21.90;46.80;102296.56;5085807;28;20052;-52
2022/05/27 10:08:46;;;;;;;4.78;1.65;;;;;;;21.91;46.52;102302.84;5085782;28;20115;-50
2022/05/27 10:11:21;;;;;;;6.35;1.70;;;;;;;21.92;46.67;102299.16;5084261;28;20068;-49
2022/05/27 10:14:10;;;;;;;6.43;1.90;;;;;;;21.93;46.77;102290.06;5078769;28;20056;-52
2022/05/27 10:16:43;;;;;;;8.00;2.03;;;;;;;21.94;46.86;102303.38;5083690;28;20122;-50
2022/05/27 10:19:21;;;;;;;9.18;2.30;;;;;;;21.96;46.50;102297.88;5075937;28;20425;-50
2022/05/27 10:22:00;;;;;;;8.35;1.70;;;;;;;21.97;46.43;102312.22;5076783;28;20147;-52
2022/05/27 10:24:31;;;;;;;7.88;1.77;;;;;;;21.99;46.48;102297.59;5080492;28;20046;-50
2022/05/27 10:27:17;;;;;;;7.90;1.98;;;;;;;22.00;46.64;102304.69;5080346;28;20496;-49
2022/05/27 10:29:52;;;;;;;6.55;1.92;;;;;;;22.03;46.42;102309.81;5081384;28;20044;-49
2022/05/27 10:32:48;;;;;;;4.47;1.40;;;;;;;22.02;46.51;102310.78;5081600;28;20041;-49
2022/05/27 10:35:21;;;;;;;8.13;1.75;;;;;;;22.04;46.67;102311.50;5064477;28;20055;-48
2022/05/27 10:38:12;;;;;;;6.88;2.00;;;;;;;22.06;46.71;102314.03;5080735;28;20059;-50
2022/05/27 10:41:26;;;;;;;7.10;2.05;;;;;;;22.06;46.64;102314.03;5077377;28;20127;-51
2022/05/27 10:44:11;;;;;;;8.23;2.10;;;;;;;22.08;46.64;102323.72;5057504;28;20148;-52
2022/05/27 10:46:44;;;;;;;6.03;1.83;;;;;;;22.08;46.20;102321.00;5080703;28;20062;-49
2022/05/27 10:49:23;;;;;;;;;;;;;;;22.09;46.24;102317.31;5075735;28;20041;-49
2022/05/27 10:52:15;;;;;;;6.82;1.75;;;;;;;22.11;46.39;102312.63;5077508;28;20007;-51
2022/05/27 10:55:11;;;;;;;8.40;2.15;;;;;;;22.12;46.31;102321.56;5083264;28;20048;-48
2022/05/27 11:04:03;;;;;;;7.57;1.70;;;;;;;22.14;46.18;102319.59;5084324;28;20062;-51
2022/05/27 11:06:47;;;;;;;9.07;2.00;;;;;;;22.14;46.15;102322.31;5084263;28;20366;-50
2022/05/27 11:09:20;;;;;;;;;;;;;;;22.15;45.64;102315.91;5080470;28;20459;-51
2022/05/27 11:12:02;;;;;;;9.13;1.55;;;;;;;22.18;45.64;102326.41;5080627;28;19923;-52
2022/05/27 11:15:11;;;;;;;5.95;1.60;;;;;;;22.17;45.83;102325.56;5085469;28;20373;-52
2022/05/27 11:18:10;;;;;;;5.55;1.75;;;;;;;22.17;45.57;102322.88;5079796;28;20053;-51
2022/05/27 11:20:53;;;;;;;5.30;1.77;;;;;;;22.20;45.89;102326.28;5082294;28;20071;-52
2022/05/27 11:23:47;;;;;;;4.47;1.80;;;;;;;22.20;45.76;102327.13;5087490;28;20494;-47
2022/05/27 11:26:38;;;;;;;5.93;1.88;;;;;;;22.21;45.83;102331.53;5089447;28;20054;-49
2022/05/27 11:29:26;;;;;;;4.28;1.27;;;;;;;22.21;45.36;102334.22;5084946;28;20131;-49
2022/05/27 11:32:19;;;;;;;8.60;2.22;;;;;;;22.22;45.65;102346.72;5082412;28;20040;-47
2022/05/27 11:35:13;;;;;;;11.73;2.72;;;;;;;22.24;45.59;102338.50;5085315;28;20077;-52
2022/05/27 11:37:39;;;;;;;8.40;2.10;;;;;;;22.24;45.62;102342.06;5084928;28;20062;-51
2022/05/27 11:40:20;;;;;;;8.13;1.75;;;;;;;22.24;46.01;102342.06;5082817;28;20284;-53
2022/05/27 11:43:14;;;;;;;5.88;1.90;;;;;;;22.24;45.90;102325.84;5084354;28;20327;-48
2022/05/27 11:45:54;;;;;;;5.13;1.70;;;;;;;22.26;45.64;102344.59;5088856;28;20055;-50
2022/05/27 11:48:36;;;;;;;5.28;1.75;;;;;;;22.27;45.87;102340.91;5088494;28;20364;-48
2022/05/27 11:51:33;;;;;;;5.95;1.90;;;;;;;22.28;45.50;102345.31;5087739;28;20327;-50
2022/05/27 11:54:29;;;;;;;7.88;2.00;;;;;;;22.29;45.63;102344.31;5080962;28;20431;-51
2022/05/27 11:57:19;;;;;;;6.70;1.67;;;;;;;22.29;45.67;102339.75;5082932;28;20343;-52
2022/05/27 12:00:03;;;;;;;5.88;1.80;;;;;;;22.30;45.92;102346.88;5081661;28;20131;-48
2022/05/27 12:02:51;;;;;;;7.03;1.80;;;;;;;22.30;45.88;102349.56;5082351;28;20040;-48
2022/05/27 12:05:24;;;;;;;5.30;1.98;;;;;;;22.32;45.66;102344.88;5087298;28;20097;-48
2022/05/27 12:08:02;;;;;;;6.20;1.42;;;;;;;22.34;45.82;102352.81;5085790;28;20064;-51
2022/05/27 12:10:50;;;;;;;3.95;1.65;;;;;;;22.34;45.87;102360.94;5079784;28;20047;-49
2022/05/27 12:13:41;;;;;;;6.10;1.85;;;;;;;22.33;45.83;102360.09;5085189;28;20097;-51
2022/05/27 12:16:37;;;;;;;5.88;1.67;;;;;;;22.35;45.79;102374.31;5080528;28;20044;-51
2022/05/27 12:19:14;;;;;;;7.10;1.80;;;;;;;22.36;45.49;102369.75;5079648;28;20044;-51
2022/05/27 12:21:46;;;;;;;4.85;1.40;;;;;;;22.36;45.57;102367.06;5082049;28;20056;-51
2022/05/27 12:24:43;;;;;;;5.57;1.30;;;;;;;22.34;45.57;102359.06;5079813;28;20044;-50